Time;durP1;ratioP1;P1;durP2;ratioP2;P2;SDS_P1;SDS_P2;PMS_P1;PMS_P2;Temp;Humidity;BMP_temperature;BMP_pressure;BME280_temperature;BME280_humidity;BME280_pressure;Samples;Min_cycle;Max_cycle;Signal;HPM_P1;HPM_P2
2023/06/05 00:00:01;;;;;;;;;5.00;5.00;;;;;;;;1996455;28;2740906;-73
2023/06/05 00:01:11;;;;;;;;;7.33;4.33;;;;;;;;1972260;28;2746603;-73
2023/06/05 00:02:22;;;;;;;;;6.00;4.00;;;;;;;;1995654;28;2744140;-73
2023/06/05 00:03:33;;;;;;;;;5.67;4.00;;;;;;;;1971485;28;2740919;-73
2023/06/05 00:04:43;;;;;;;;;5.00;5.00;;;;;;;;1972588;28;2743007;-73
2023/06/05 00:05:55;;;;;;;;;6.00;5.00;;;;;;;;1995224;28;2742993;-73
2023/06/05 00:07:05;;;;;;;;;4.00;4.00;;;;;;;;1964944;28;2746157;-73
2023/06/05 00:08:16;;;;;;;;;5.00;4.67;;;;;;;;1975379;28;2745125;-73
2023/06/05 00:09:27;;;;;;;;;5.00;4.67;;;;;;;;1971295;28;2746116;-73
2023/06/05 00:10:37;;;;;;;;;3.00;3.00;;;;;;;;1991904;28;2748190;-73
2023/06/05 00:11:48;;;;;;;;;4.00;4.00;;;;;;;;1989736;28;2747148;-73
2023/06/05 00:12:59;;;;;;;;;3.67;3.67;;;;;;;;1987016;28;2754451;-73
2023/06/05 00:14:10;;;;;;;;;5.00;5.00;;;;;;;;1996433;28;2743497;-73
2023/06/05 00:15:23;;;;;;;;;5.00;5.00;;;;;;;;1996046;28;2740896;-73
2023/06/05 00:16:36;;;;;;;;;3.00;3.00;;;;;;;;1995773;28;2741948;-73
2023/06/05 00:17:49;;;;;;;;;5.17;5.17;;;;;;;;1973452;28;2746132;-73
2023/06/05 00:19:00;;;;;;;;;5.00;5.00;;;;;;;;1957342;28;2746481;-73
2023/06/05 00:20:11;;;;;;;;;5.00;4.00;;;;;;;;1979677;28;2742969;-73
2023/06/05 00:21:22;;;;;;;;;4.00;4.00;;;;;;;;1978829;28;2737792;-73
2023/06/05 00:22:33;;;;;;;;;4.00;4.00;;;;;;;;1971653;28;2750358;-73
2023/06/05 00:23:46;;;;;;;;;4.33;4.17;;;;;;;;1996572;28;2747178;-73
2023/06/05 00:24:59;;;;;;;;;3.50;3.00;;;;;;;;1974502;28;2738809;-73
2023/06/05 00:26:10;;;;;;;;;5.00;5.00;;;;;;;;1948143;28;2738812;-73
2023/06/05 00:27:20;;;;;;;;;6.33;5.00;;;;;;;;1995058;28;2748181;-73
2023/06/05 00:28:34;;;;;;;;;3.00;3.00;;;;;;;;1996077;28;2739869;-73
2023/06/05 00:29:44;;;;;;;;;9.33;6.00;;;;;;;;1972454;28;2751326;-73
2023/06/05 00:30:55;;;;;;;;;7.00;6.00;;;;;;;;1995036;28;2736745;-73
2023/06/05 00:32:05;;;;;;;;;4.67;4.00;;;;;;;;1985517;28;1813827;-73
2023/06/05 00:33:16;;;;;;;;;7.33;4.67;;;;;;;;1969368;28;2749239;-73
2023/06/05 00:34:27;;;;;;;;;4.00;4.00;;;;;;;;1990900;28;2746134;-73
2023/06/05 00:35:38;;;;;;;;;5.00;5.00;;;;;;;;1995683;28;2746099;-73
2023/06/05 00:36:52;;;;;;;;;6.33;4.50;;;;;;;;1996715;28;2746099;-73
2023/06/05 00:38:02;;;;;;;;;4.00;4.00;;;;;;;;1949354;28;2744080;-73
2023/06/05 00:39:13;;;;;;;;;7.00;6.67;;;;;;;;1996145;28;2734661;-73
2023/06/05 00:40:23;;;;;;;;;4.00;4.00;;;;;;;;1971246;28;2744050;-73
2023/06/05 00:41:35;;;;;;;;;6.00;5.33;;;;;;;;1996128;28;2739352;-73
2023/06/05 00:42:45;;;;;;;;;5.33;4.00;;;;;;;;1971071;28;2739885;-73
2023/06/05 00:43:56;;;;;;;;;5.67;4.33;;;;;;;;1988123;28;2748204;-73
2023/06/05 00:45:07;;;;;;;;;6.00;4.00;;;;;;;;1991758;28;2745126;-73
2023/06/05 00:46:19;;;;;;;;;6.33;4.67;;;;;;;;1995063;28;2747207;-73
2023/06/05 00:47:29;;;;;;;;;4.67;4.67;;;;;;;;1948173;28;2748202;-73
2023/06/05 00:48:40;;;;;;;;;4.67;4.00;;;;;;;;1995029;28;2740926;-73
2023/06/05 00:49:53;;;;;;;;;5.17;5.17;;;;;;;;1996867;28;2745045;-73
2023/06/05 00:51:04;;;;;;;;;4.00;4.00;;;;;;;;1949331;28;2748183;-73
2023/06/05 00:52:15;;;;;;;;;5.67;5.00;;;;;;;;1996928;28;2739880;-73
2023/06/05 00:53:25;;;;;;;;;5.00;4.33;;;;;;;;1971848;28;2750279;-73
2023/06/05 00:54:36;;;;;;;;;7.33;4.33;;;;;;;;1988683;28;2748225;-73
2023/06/05 00:55:48;;;;;;;;;7.00;5.75;;;;;;;;1995135;28;2739873;-73
2023/06/05 00:56:58;;;;;;;;;5.67;4.00;;;;;;;;1970309;28;2749312;-73
2023/06/05 00:58:09;;;;;;;;;5.33;5.33;;;;;;;;1994543;28;2738812;-73
2023/06/05 00:59:22;;;;;;;;;1.50;1.00;;;;;;;;1997160;28;2725258;-73
2023/06/05 01:00:33;;;;;;;;;4.00;4.00;;;;;;;;1950366;28;2745138;-73
2023/06/05 01:01:45;;;;;;;;;5.00;5.00;;;;;;;;1970715;28;3460109;-73
2023/06/05 01:02:56;;;;;;;;;5.00;4.00;;;;;;;;1971707;28;2748594;-73
2023/06/05 01:04:06;;;;;;;;;7.00;5.00;;;;;;;;1971933;28;2746151;-73
2023/06/05 01:05:17;;;;;;;;;4.00;4.00;;;;;;;;1994517;28;2738800;-73
2023/06/05 01:06:31;;;;;;;;;3.00;3.00;;;;;;;;1994704;28;2741981;-73
2023/06/05 01:07:41;;;;;;;;;6.33;4.00;;;;;;;;1949033;28;2741952;-73
2023/06/05 01:08:53;;;;;;;;;5.00;5.00;;;;;;;;1995120;28;2743005;-73
2023/06/05 01:10:08;;;;;;;;;6.00;5.00;;;;;;;;1989755;28;2740908;-73
2023/06/05 01:11:28;;;;;;;;;5.17;5.00;;;;;;;;1972633;28;2747140;-73
2023/06/05 01:12:51;;;;;;;;;6.33;4.50;;;;;;;;1972296;28;2743478;-73
2023/06/05 01:14:07;;;;;;;;;6.67;4.67;;;;;;;;1973655;28;2738796;-73
2023/06/05 01:15:28;;;;;;;;;5.33;5.00;;;;;;;;1973228;28;2752358;-73
2023/06/05 01:16:44;;;;;;;;;6.33;5.50;;;;;;;;1965785;28;2742971;-73
2023/06/05 01:17:58;;;;;;;;;6.50;5.17;;;;;;;;1972222;28;2748235;-73
2023/06/05 01:19:14;;;;;;;;;5.83;4.00;;;;;;;;1974356;28;2747152;-73
2023/06/05 01:20:34;;;;;;;;;7.67;5.67;;;;;;;;1972526;28;2738828;-73
2023/06/05 01:21:44;;;;;;;;;7.00;5.00;;;;;;;;1942095;28;3452377;-73
2023/06/05 01:22:57;;;;;;;;;7.00;5.00;;;;;;;;1994064;28;2746114;-73
2023/06/05 01:24:07;;;;;;;;;5.67;5.67;;;;;;;;1970611;28;3454444;-72
2023/06/05 01:25:18;;;;;;;;;4.00;4.00;;;;;;;;1992951;28;2745081;-73
2023/06/05 01:26:33;;;;;;;;;6.33;5.00;;;;;;;;1976776;28;2745122;-73
2023/06/05 01:27:49;;;;;;;;;6.00;4.00;;;;;;;;1971471;28;2746098;-73
2023/06/05 01:29:01;;;;;;;;;6.33;5.00;;;;;;;;1971607;28;2748288;-73
2023/06/05 01:30:30;;;;;;;;;6.33;6.17;;;;;;;;1995819;28;2736716;-73
2023/06/05 01:31:45;;;;;;;;;4.67;4.67;;;;;;;;1973561;28;2741407;-73
2023/06/05 01:33:01;;;;;;;;;9.67;6.00;;;;;;;;1948470;28;2750405;-73
2023/06/05 01:34:19;;;;;;;;;4.67;4.67;;;;;;;;1995649;28;2746124;-73
2023/06/05 01:35:34;;;;;;;;;7.83;5.50;;;;;;;;1973423;28;2729437;-73
2023/06/05 01:36:44;;;;;;;;;4.67;4.67;;;;;;;;1948982;28;2741940;-73
2023/06/05 01:37:58;;;;;;;;;5.00;5.00;;;;;;;;1987482;28;2747165;-73
2023/06/05 01:39:12;;;;;;;;;7.50;5.00;;;;;;;;1997147;28;2740887;-73
2023/06/05 01:40:23;;;;;;;;;5.00;3.00;;;;;;;;1948697;28;2754432;-73
2023/06/05 01:41:34;;;;;;;;;9.67;5.00;;;;;;;;1971023;28;2753398;-73
2023/06/05 01:42:46;;;;;;;;;4.67;3.67;;;;;;;;1972871;28;2742986;-73
2023/06/05 01:43:59;;;;;;;;;6.50;5.00;;;;;;;;1996653;28;2746095;-73
2023/06/05 01:45:11;;;;;;;;;6.33;4.00;;;;;;;;1947187;28;2745093;-73
2023/06/05 01:46:24;;;;;;;;;4.50;4.50;;;;;;;;1995535;28;2746118;-73
2023/06/05 01:47:38;;;;;;;;;8.17;6.33;;;;;;;;1972957;28;2739857;-73
2023/06/05 01:48:52;;;;;;;;;8.33;5.83;;;;;;;;1996812;28;2727354;-73
2023/06/05 01:50:06;;;;;;;;;5.67;5.67;;;;;;;;1972950;28;2745108;-73
2023/06/05 01:51:19;;;;;;;;;7.00;6.00;;;;;;;;1973703;28;2729812;-73
2023/06/05 01:52:33;;;;;;;;;7.83;6.83;;;;;;;;1996443;28;2729434;-73
2023/06/05 01:53:48;;;;;;;;;5.33;5.33;;;;;;;;1948794;28;2741984;-73
2023/06/05 01:55:01;;;;;;;;;4.50;4.00;;;;;;;;1996854;28;2739833;-73
2023/06/05 01:56:12;;;;;;;;;6.00;6.00;;;;;;;;1948294;28;2740949;-73
2023/06/05 01:57:23;;;;;;;;;7.00;6.33;;;;;;;;1993232;28;3450237;-73
2023/06/05 01:58:35;;;;;;;;;6.00;4.33;;;;;;;;1990734;28;2752430;-73
2023/06/05 01:59:45;;;;;;;;;4.67;3.00;;;;;;;;1971007;28;2754512;-73
2023/06/05 02:00:56;;;;;;;;;7.00;6.00;;;;;;;;1995914;28;2730495;-73
2023/06/05 02:02:07;;;;;;;;;6.67;5.00;;;;;;;;1970200;28;2746112;-73
2023/06/05 02:03:20;;;;;;;;;4.50;4.00;;;;;;;;1995852;28;2740934;-73
2023/06/05 02:04:32;;;;;;;;;3.00;3.00;;;;;;;;1947868;28;2746087;-73
2023/06/05 02:05:46;;;;;;;;;6.83;6.83;;;;;;;;1996344;28;2744036;-73
2023/06/05 02:07:03;;;;;;;;;5.67;5.67;;;;;;;;1973490;28;2748216;-73
2023/06/05 02:08:19;;;;;;;;;4.50;4.50;;;;;;;;1973378;28;2747148;-73
2023/06/05 02:09:32;;;;;;;;;4.67;4.33;;;;;;;;1946474;28;2744007;-73
2023/06/05 02:10:46;;;;;;;;;5.50;4.17;;;;;;;;1996143;28;2745056;-73
2023/06/05 02:11:58;;;;;;;;;7.00;6.67;;;;;;;;1947823;28;3452329;-73
2023/06/05 02:13:08;;;;;;;;;5.67;4.33;;;;;;;;1971086;28;2748306;-73
2023/06/05 02:14:20;;;;;;;;;6.67;6.67;;;;;;;;1983199;28;2734812;-73
2023/06/05 02:15:32;;;;;;;;;7.00;6.00;;;;;;;;1971439;28;2724256;-73
2023/06/05 02:16:48;;;;;;;;;7.50;5.17;;;;;;;;1996105;28;2737758;-73
2023/06/05 02:18:02;;;;;;;;;1.00;1.00;;;;;;;;1974512;28;2738396;-73
2023/06/05 02:19:13;;;;;;;;;6.33;5.00;;;;;;;;1948669;28;2743447;-73
2023/06/05 02:20:25;;;;;;;;;7.00;5.33;;;;;;;;1995460;28;2746102;-73
2023/06/05 02:21:38;;;;;;;;;6.17;5.67;;;;;;;;1996340;28;2735004;-73
2023/06/05 02:22:51;;;;;;;;;7.00;4.00;;;;;;;;1948303;28;2746252;-73
2023/06/05 02:24:03;;;;;;;;;5.00;5.00;;;;;;;;1984382;28;1815970;-73
2023/06/05 02:25:16;;;;;;;;;4.50;3.33;;;;;;;;1996671;28;2738819;-73
2023/06/05 02:26:29;;;;;;;;;7.33;6.17;;;;;;;;1973375;28;2740903;-73
2023/06/05 02:27:39;;;;;;;;;5.67;5.00;;;;;;;;1963293;28;2751390;-73
2023/06/05 02:28:50;;;;;;;;;10.33;6.00;;;;;;;;2004493;28;3469045;-73
2023/06/05 02:30:03;;;;;;;;;5.00;4.00;;;;;;;;1995494;28;2732569;-73
2023/06/05 02:31:16;;;;;;;;;5.17;4.33;;;;;;;;1996149;28;2737798;-73
2023/06/05 02:32:31;;;;;;;;;6.00;6.00;;;;;;;;1974252;28;2738857;-73
2023/06/05 02:33:41;;;;;;;;;6.33;5.67;;;;;;;;1947726;28;3451275;-73
2023/06/05 02:34:56;;;;;;;;;6.00;5.50;;;;;;;;1995669;28;2728419;-73
2023/06/05 02:36:06;;;;;;;;;7.00;5.33;;;;;;;;1949558;28;2746201;-73
2023/06/05 02:37:18;;;;;;;;;7.33;5.00;;;;;;;;1992371;28;2737793;-73
2023/06/05 02:38:31;;;;;;;;;5.67;5.00;;;;;;;;1995300;28;2730471;-73
2023/06/05 02:39:45;;;;;;;;;7.17;6.00;;;;;;;;1995739;28;2737770;-73
2023/06/05 02:40:58;;;;;;;;;7.67;5.33;;;;;;;;1973313;28;2744032;-73
2023/06/05 02:42:12;;;;;;;;;7.00;5.17;;;;;;;;1972885;28;2746190;-73
2023/06/05 02:43:25;;;;;;;;;6.00;3.17;;;;;;;;2011098;28;2740886;-73
2023/06/05 02:44:36;;;;;;;;;3.33;3.00;;;;;;;;1959887;28;3465893;-73
2023/06/05 02:45:47;;;;;;;;;6.33;6.33;;;;;;;;1989397;28;2736781;-73
2023/06/05 02:46:57;;;;;;;;;10.00;8.00;;;;;;;;1987189;28;2754602;-73
2023/06/05 02:48:08;;;;;;;;;5.67;5.67;;;;;;;;1995134;28;2742997;-73
2023/06/05 02:49:21;;;;;;;;;5.00;4.20;;;;;;;;1994882;28;2742983;-73
2023/06/05 02:50:31;;;;;;;;;5.00;5.00;;;;;;;;1949212;28;2743495;-73
2023/06/05 02:51:42;;;;;;;;;7.00;7.00;;;;;;;;1994837;28;2739855;-73
2023/06/05 02:52:52;;;;;;;;;7.33;5.67;;;;;;;;1984563;28;1803461;-73
2023/06/05 02:54:03;;;;;;;;;5.00;3.67;;;;;;;;1968981;28;2746107;-73
2023/06/05 02:55:16;;;;;;;;;5.50;5.50;;;;;;;;1995095;28;2736732;-73
2023/06/05 02:56:26;;;;;;;;;8.00;7.00;;;;;;;;1970325;28;2734720;-73
2023/06/05 02:57:41;;;;;;;;;7.00;6.00;;;;;;;;1990543;28;2746130;-73
2023/06/05 02:58:51;;;;;;;;;8.00;7.00;;;;;;;;1971166;28;2746158;-73
2023/06/05 03:00:07;;;;;;;;;7.00;5.67;;;;;;;;1993730;28;2725352;-73
2023/06/05 03:01:21;;;;;;;;;5.67;4.00;;;;;;;;1996586;28;2747172;-73
2023/06/05 03:02:32;;;;;;;;;7.33;5.00;;;;;;;;1948465;28;2740883;-73
2023/06/05 03:03:42;;;;;;;;;6.00;4.33;;;;;;;;1971332;28;2750265;-72
2023/06/05 03:04:55;;;;;;;;;6.33;6.00;;;;;;;;1995150;28;2742959;-73
2023/06/05 03:06:08;;;;;;;;;7.83;6.50;;;;;;;;1996096;28;2734127;-73
2023/06/05 03:07:19;;;;;;;;;5.33;5.33;;;;;;;;1969690;28;2750307;-73
2023/06/05 03:08:33;;;;;;;;;10.50;6.33;;;;;;;;1996737;28;2735718;-72
2023/06/05 03:09:43;;;;;;;;;7.67;7.00;;;;;;;;1946695;28;3454423;-73
2023/06/05 03:10:54;;;;;;;;;8.33;6.00;;;;;;;;1992398;28;2737866;-73
2023/06/05 03:12:05;;;;;;;;;6.33;4.33;;;;;;;;1990555;28;2742973;-73
2023/06/05 03:13:16;;;;;;;;;5.00;5.00;;;;;;;;1980964;28;2748293;-72
2023/06/05 03:14:30;;;;;;;;;8.00;5.80;;;;;;;;1995149;28;2729937;-73
2023/06/05 03:15:43;;;;;;;;;7.17;6.33;;;;;;;;1974525;28;2739176;-73
2023/06/05 03:16:58;;;;;;;;;6.50;4.67;;;;;;;;1972603;28;2740888;-73
2023/06/05 03:18:09;;;;;;;;;7.00;7.00;;;;;;;;1960905;28;1812801;-72
2023/06/05 03:19:20;;;;;;;;;9.00;7.67;;;;;;;;1969195;28;3447133;-72
2023/06/05 03:20:30;;;;;;;;;10.67;6.00;;;;;;;;1977702;28;2756624;-73
2023/06/05 03:21:42;;;;;;;;;9.33;6.33;;;;;;;;1995684;28;2745133;-72
2023/06/05 03:22:56;;;;;;;;;7.67;7.17;;;;;;;;1997343;28;2739842;-72
2023/06/05 03:24:08;;;;;;;;;5.33;5.33;;;;;;;;1948102;28;3455477;-73
2023/06/05 03:25:21;;;;;;;;;6.00;6.00;;;;;;;;1997587;28;2740911;-72
2023/06/05 03:26:32;;;;;;;;;8.50;8.00;;;;;;;;1948705;28;2749243;-73
2023/06/05 03:27:46;;;;;;;;;6.60;6.60;;;;;;;;1988710;28;2744019;-73
2023/06/05 03:28:56;;;;;;;;;8.50;7.00;;;;;;;;1957925;28;2737777;-73
2023/06/05 03:30:08;;;;;;;;;10.00;7.00;;;;;;;;1995205;28;3470056;-73
2023/06/05 03:31:18;;;;;;;;;8.00;5.67;;;;;;;;1971886;28;2738832;-73
2023/06/05 03:32:30;;;;;;;;;7.67;6.33;;;;;;;;1996224;28;2733594;-72
2023/06/05 03:33:40;;;;;;;;;11.33;8.00;;;;;;;;1969859;28;3485657;-72
2023/06/05 03:34:51;;;;;;;;;5.67;5.67;;;;;;;;1996485;28;2736752;-73
2023/06/05 03:36:02;;;;;;;;;5.00;5.00;;;;;;;;1969955;28;2727370;-72
2023/06/05 03:37:12;;;;;;;;;8.00;6.67;;;;;;;;1990442;28;2749403;-73
2023/06/05 03:38:23;;;;;;;;;7.33;5.67;;;;;;;;1991144;28;3454404;-72
2023/06/05 03:39:34;;;;;;;;;4.33;4.33;;;;;;;;1991414;28;2739851;-72
2023/06/05 03:40:45;;;;;;;;;6.00;6.00;;;;;;;;2004586;28;2731867;-73
2023/06/05 03:41:57;;;;;;;;;5.20;4.00;;;;;;;;2010805;28;2739935;-73
2023/06/05 03:43:08;;;;;;;;;7.67;7.00;;;;;;;;1947720;28;2735698;-73
2023/06/05 03:44:20;;;;;;;;;6.33;6.00;;;;;;;;1994041;28;3448194;-73
2023/06/05 03:45:31;;;;;;;;;7.00;6.00;;;;;;;;1972144;28;2746481;-73
2023/06/05 03:46:42;;;;;;;;;10.50;7.50;;;;;;;;1984531;28;1833686;-73
2023/06/05 03:47:53;;;;;;;;;6.67;6.33;;;;;;;;1970958;28;3445034;-73
2023/06/05 03:49:09;;;;;;;;;6.83;4.83;;;;;;;;1997184;28;2738806;-73
2023/06/05 03:50:23;;;;;;;;;7.83;5.33;;;;;;;;1975165;28;2731926;-72
2023/06/05 03:51:34;;;;;;;;;9.00;8.33;;;;;;;;1970284;28;3468991;-72
2023/06/05 03:52:44;;;;;;;;;8.00;8.00;;;;;;;;1986663;28;2744020;-73
2023/06/05 03:53:58;;;;;;;;;9.00;6.67;;;;;;;;1993257;28;3451259;-73
2023/06/05 03:55:09;;;;;;;;;7.67;7.33;;;;;;;;1970253;28;3451275;-73
2023/06/05 03:56:19;;;;;;;;;6.00;6.00;;;;;;;;1971317;28;2747181;-73
2023/06/05 03:57:30;;;;;;;;;9.00;7.67;;;;;;;;2000099;28;1833694;-73
2023/06/05 03:58:41;;;;;;;;;7.00;5.67;;;;;;;;1971486;28;3451279;-73
2023/06/05 03:59:51;;;;;;;;;6.50;5.00;;;;;;;;1969929;28;2742052;-73
2023/06/05 04:01:02;;;;;;;;;7.33;6.67;;;;;;;;1994696;28;2740950;-73
2023/06/05 04:02:13;;;;;;;;;11.00;9.00;;;;;;;;1964289;28;3486774;-73
2023/06/05 04:03:25;;;;;;;;;7.33;6.67;;;;;;;;1978960;28;2732384;-73
2023/06/05 04:04:35;;;;;;;;;9.00;8.00;;;;;;;;1970754;28;2744008;-73
2023/06/05 04:05:46;;;;;;;;;8.00;6.33;;;;;;;;2018396;28;1812822;-75
2023/06/05 04:06:56;;;;;;;;;8.33;8.33;;;;;;;;1986656;28;2736757;-75
2023/06/05 04:08:08;;;;;;;;;10.33;9.00;;;;;;;;2000507;28;1821134;-75
2023/06/05 04:09:21;;;;;;;;;7.00;7.00;;;;;;;;1997378;28;2731552;-75
2023/06/05 04:10:31;;;;;;;;;6.67;6.67;;;;;;;;1947826;28;2740978;-75
2023/06/05 04:11:43;;;;;;;;;10.00;8.50;;;;;;;;1988038;28;2750266;-76
2023/06/05 04:12:53;;;;;;;;;9.50;8.00;;;;;;;;1969081;28;2756533;-76
2023/06/05 04:14:04;;;;;;;;;6.00;6.00;;;;;;;;1992635;28;2473631;-75
2023/06/05 04:15:16;;;;;;;;;5.25;0.00;;;;;;;;1995495;28;2735053;-75
2023/06/05 04:16:26;;;;;;;;;7.00;7.00;;;;;;;;1970433;28;3451268;-75
2023/06/05 04:17:37;;;;;;;;;10.33;8.67;;;;;;;;1992688;28;3467961;-75
2023/06/05 04:18:48;;;;;;;;;8.00;7.00;;;;;;;;1983825;28;2481498;-75
2023/06/05 04:19:59;;;;;;;;;8.00;8.00;;;;;;;;1993395;28;2741995;-75
2023/06/05 04:21:10;;;;;;;;;8.67;7.33;;;;;;;;1993197;28;2746178;-75
2023/06/05 04:22:21;;;;;;;;;9.50;7.00;;;;;;;;1991262;28;2756551;-75
2023/06/05 04:23:31;;;;;;;;;8.33;7.33;;;;;;;;1981617;28;3450230;-75
2023/06/05 04:24:42;;;;;;;;;9.00;9.00;;;;;;;;1996340;28;2737761;-75
2023/06/05 04:25:54;;;;;;;;;8.33;7.67;;;;;;;;1985370;28;1821097;-76
2023/06/05 04:27:05;;;;;;;;;10.75;10.25;;;;;;;;1963207;28;1839941;-76
2023/06/05 04:28:16;;;;;;;;;9.75;7.00;;;;;;;;1985320;28;1821667;-75
2023/06/05 04:29:26;;;;;;;;;9.00;8.00;;;;;;;;1968473;28;2747153;-75
2023/06/05 04:30:37;;;;;;;;;8.00;8.00;;;;;;;;2000880;28;1842987;-75
2023/06/05 04:31:48;;;;;;;;;8.50;8.50;;;;;;;;1950306;28;2752360;-75
2023/06/05 04:32:59;;;;;;;;;10.00;9.00;;;;;;;;1981448;28;2763289;-75
2023/06/05 04:34:11;;;;;;;;;10.25;7.25;;;;;;;;1991835;28;1835783;-75
2023/06/05 04:35:22;;;;;;;;;9.00;8.00;;;;;;;;1981105;28;1839929;-75
2023/06/05 04:36:34;;;;;;;;;12.50;8.00;;;;;;;;1956106;28;2764844;-75
2023/06/05 04:37:45;;;;;;;;;9.00;9.00;;;;;;;;1982735;28;2742982;-75
2023/06/05 04:38:58;;;;;;;;;9.67;7.67;;;;;;;;2001928;28;2744031;-75
2023/06/05 04:40:11;;;;;;;;;7.67;6.33;;;;;;;;1972402;28;2737837;-75
2023/06/05 04:41:22;;;;;;;;;9.00;7.33;;;;;;;;1954360;28;1837798;-75
2023/06/05 04:42:33;;;;;;;;;10.50;7.00;;;;;;;;1961823;28;2748697;-75
2023/06/05 04:43:43;;;;;;;;;11.00;8.00;;;;;;;;1979200;28;2762161;-75
2023/06/05 04:44:58;;;;;;;;;8.50;8.50;;;;;;;;1991889;28;2735723;-75
2023/06/05 04:46:08;;;;;;;;;10.67;10.33;;;;;;;;1967700;28;3502332;-75
2023/06/05 04:47:19;;;;;;;;;8.00;8.00;;;;;;;;1990231;28;2735698;-75
2023/06/05 04:48:30;;;;;;;;;10.00;8.50;;;;;;;;1986304;28;2741898;-75
2023/06/05 04:49:41;;;;;;;;;9.33;8.33;;;;;;;;1990798;28;3470052;-75
2023/06/05 04:50:53;;;;;;;;;10.00;8.50;;;;;;;;1990775;28;2767028;-75
2023/06/05 04:52:03;;;;;;;;;10.50;9.00;;;;;;;;1967876;28;2769058;-76
2023/06/05 04:53:15;;;;;;;;;10.00;8.00;;;;;;;;1983201;28;2762762;-75
2023/06/05 04:54:26;;;;;;;;;9.67;8.33;;;;;;;;1966944;28;3470020;-75
2023/06/05 04:55:36;;;;;;;;;12.00;11.25;;;;;;;;1993557;28;1833736;-75
2023/06/05 04:56:49;;;;;;;;;13.00;10.00;;;;;;;;1967633;28;2791939;-75
2023/06/05 04:58:00;;;;;;;;;12.00;9.67;;;;;;;;1968955;28;3482548;-76
2023/06/05 04:59:10;;;;;;;;;12.50;9.00;;;;;;;;1968315;28;2764893;-75
2023/06/05 05:00:21;;;;;;;;;9.50;9.00;;;;;;;;1961740;28;2762824;-75
2023/06/05 05:01:33;;;;;;;;;13.00;12.50;;;;;;;;1964115;28;2791920;-75
2023/06/05 05:02:44;;;;;;;;;10.50;8.50;;;;;;;;1967348;28;2758603;-76
2023/06/05 05:03:55;;;;;;;;;13.00;10.25;;;;;;;;1996679;28;1833651;-75
2023/06/05 05:05:06;;;;;;;;;11.50;11.00;;;;;;;;1968613;28;2786735;-75
2023/06/05 05:06:17;;;;;;;;;11.00;10.00;;;;;;;;1960538;28;2787765;-75
2023/06/05 05:07:28;;;;;;;;;13.00;11.00;;;;;;;;1964398;28;2786746;-76
2023/06/05 05:08:39;;;;;;;;;11.00;10.67;;;;;;;;1996476;28;1848210;-75
2023/06/05 05:09:51;;;;;;;;;13.40;9.20;;;;;;;;1978800;28;1819498;-75
2023/06/05 05:11:04;;;;;;;;;12.80;11.40;;;;;;;;1960404;28;2787784;-76
2023/06/05 05:12:15;;;;;;;;;12.50;11.00;;;;;;;;1958322;28;2782512;-76
2023/06/05 05:13:26;;;;;;;;;16.00;11.50;;;;;;;;1967948;28;2797127;-75
2023/06/05 05:14:39;;;;;;;;;12.17;10.33;;;;;;;;1992682;28;2789840;-76
2023/06/05 05:15:52;;;;;;;;;10.00;10.00;;;;;;;;1945904;28;2789899;-75
2023/06/05 05:17:03;;;;;;;;;9.00;9.00;;;;;;;;1947509;28;2759636;-75
2023/06/05 05:18:14;;;;;;;;;11.00;10.00;;;;;;;;1981270;28;2784638;-75
2023/06/05 05:19:25;;;;;;;;;11.00;11.00;;;;;;;;1975035;28;1848282;-75
2023/06/05 05:20:35;;;;;;;;;12.50;10.00;;;;;;;;1972027;28;2786741;-76
2023/06/05 05:21:47;;;;;;;;;10.25;9.25;;;;;;;;1975799;28;1822249;-76
2023/06/05 05:22:58;;;;;;;;;9.00;9.00;;;;;;;;1968221;28;2746126;-75
2023/06/05 05:24:11;;;;;;;;;13.83;11.17;;;;;;;;1996994;28;1833715;-76
2023/06/05 05:25:22;;;;;;;;;10.00;9.50;;;;;;;;1942735;28;2761762;-75
2023/06/05 05:26:32;;;;;;;;;14.00;10.75;;;;;;;;1969310;28;1831510;-75
2023/06/05 05:27:43;;;;;;;;;10.00;10.00;;;;;;;;1972369;28;2775224;-74
2023/06/05 05:28:55;;;;;;;;;11.17;10.50;;;;;;;;1991220;28;2795036;-74
2023/06/05 05:30:07;;;;;;;;;12.00;10.50;;;;;;;;1971252;28;2784611;-74
2023/06/05 05:31:17;;;;;;;;;11.00;10.00;;;;;;;;1964640;28;2791950;-74
2023/06/05 05:32:28;;;;;;;;;12.00;11.50;;;;;;;;1959680;28;2783614;-74
2023/06/05 05:33:39;;;;;;;;;10.00;9.00;;;;;;;;1989680;28;2764880;-71
2023/06/05 05:34:50;;;;;;;;;13.00;11.00;;;;;;;;1991480;28;2791926;-72
2023/06/05 05:36:01;;;;;;;;;11.00;7.50;;;;;;;;1952497;28;2760690;-72
2023/06/05 05:37:12;;;;;;;;;9.25;9.25;;;;;;;;1997557;28;1831585;-71
2023/06/05 05:38:22;;;;;;;;;13.00;10.50;;;;;;;;1962713;28;2794081;-72
2023/06/05 05:39:33;;;;;;;;;13.00;11.00;;;;;;;;1968461;28;2787859;-71
2023/06/05 05:40:45;;;;;;;;;10.00;10.00;;;;;;;;1992779;28;2789808;-71
2023/06/05 05:41:56;;;;;;;;;12.75;11.75;;;;;;;;1971568;28;1831584;-72
2023/06/05 05:43:06;;;;;;;;;11.50;11.00;;;;;;;;1950210;28;2790004;-71
2023/06/05 05:44:19;;;;;;;;;11.17;11.17;;;;;;;;1967937;28;2792925;-71
2023/06/05 05:45:30;;;;;;;;;9.50;9.50;;;;;;;;1946472;28;2769038;-72
2023/06/05 05:46:40;;;;;;;;;16.00;12.00;;;;;;;;1975864;28;2795044;-71
2023/06/05 05:47:53;;;;;;;;;13.57;11.43;;;;;;;;1966090;28;2802378;-72
2023/06/05 05:49:06;;;;;;;;;13.50;11.00;;;;;;;;1998323;28;1831613;-71
2023/06/05 05:50:19;;;;;;;;;13.00;11.17;;;;;;;;1975472;28;1822178;-71
2023/06/05 05:51:30;;;;;;;;;12.00;12.00;;;;;;;;1946444;28;2811750;-71
2023/06/05 05:52:42;;;;;;;;;12.50;12.50;;;;;;;;1958536;28;2784588;-72
2023/06/05 05:53:56;;;;;;;;;12.57;12.00;;;;;;;;1976570;28;1827394;-72
2023/06/05 05:55:07;;;;;;;;;11.00;10.00;;;;;;;;1968688;28;2787240;-72
2023/06/05 05:56:18;;;;;;;;;10.00;8.00;;;;;;;;1944776;28;2748159;-72
2023/06/05 05:57:30;;;;;;;;;12.50;11.33;;;;;;;;1971457;28;2800244;-72
2023/06/05 05:58:42;;;;;;;;;10.00;9.50;;;;;;;;1962063;28;2774184;-71
2023/06/05 05:59:52;;;;;;;;;12.00;11.00;;;;;;;;1944318;28;2786734;-72
2023/06/05 06:01:04;;;;;;;;;14.00;12.50;;;;;;;;1968520;28;2804450;-72
2023/06/05 06:02:17;;;;;;;;;13.17;11.83;;;;;;;;1967319;28;2799174;-72
2023/06/05 06:03:28;;;;;;;;;12.50;11.00;;;;;;;;1957983;28;2789866;-72
2023/06/05 06:04:43;;;;;;;;;14.50;12.50;;;;;;;;1998201;28;1829500;-72
2023/06/05 06:05:54;;;;;;;;;9.50;8.50;;;;;;;;1944187;28;2767994;-72
2023/06/05 06:07:05;;;;;;;;;12.00;11.50;;;;;;;;1960171;28;2786687;-72
2023/06/05 06:08:17;;;;;;;;;13.33;12.00;;;;;;;;1947639;28;2814906;-72
2023/06/05 06:09:31;;;;;;;;;13.71;11.29;;;;;;;;1998913;28;1829493;-72
2023/06/05 06:10:41;;;;;;;;;12.00;12.00;;;;;;;;1968184;28;2789851;-71
2023/06/05 06:11:55;;;;;;;;;12.00;8.00;;;;;;;;1968944;28;2760642;-71
2023/06/05 06:13:06;;;;;;;;;14.00;11.50;;;;;;;;1967103;28;2782504;-72
2023/06/05 06:14:16;;;;;;;;;12.00;10.50;;;;;;;;1966209;28;2789844;-72
2023/06/05 06:15:27;;;;;;;;;14.75;12.25;;;;;;;;1970786;28;1834709;-72
2023/06/05 06:16:40;;;;;;;;;14.00;12.67;;;;;;;;1971085;28;2785662;-72
2023/06/05 06:17:51;;;;;;;;;10.33;9.67;;;;;;;;1967790;28;2783633;-71
2023/06/05 06:19:01;;;;;;;;;12.00;11.50;;;;;;;;1968078;28;2810668;-71
2023/06/05 06:20:15;;;;;;;;;16.00;13.71;;;;;;;;1967963;28;2810080;-71
2023/06/05 06:21:26;;;;;;;;;17.00;15.33;;;;;;;;1968586;28;2818965;-72
2023/06/05 06:22:40;;;;;;;;;12.43;11.14;;;;;;;;1998837;28;1827950;-72
2023/06/05 06:23:51;;;;;;;;;13.33;12.67;;;;;;;;1971440;28;2804465;-72
2023/06/05 06:25:02;;;;;;;;;11.50;10.00;;;;;;;;1968148;28;2784647;-72
2023/06/05 06:26:15;;;;;;;;;12.00;11.00;;;;;;;;1962106;28;2792234;-72
2023/06/05 06:27:25;;;;;;;;;12.50;11.00;;;;;;;;1944302;28;2781494;-73
2023/06/05 06:28:38;;;;;;;;;14.57;11.71;;;;;;;;1969389;28;2810794;-73
2023/06/05 06:29:49;;;;;;;;;6.50;6.50;;;;;;;;1968960;28;2737806;-73
2023/06/05 06:31:03;;;;;;;;;13.50;13.50;;;;;;;;1998681;28;1827417;-73
2023/06/05 06:32:17;;;;;;;;;12.67;10.50;;;;;;;;1984590;28;1831613;-73
2023/06/05 06:33:29;;;;;;;;;15.50;12.00;;;;;;;;1949602;28;2790897;-73
2023/06/05 06:34:39;;;;;;;;;13.50;12.50;;;;;;;;1968854;28;2799234;-73
2023/06/05 06:35:50;;;;;;;;;11.25;11.00;;;;;;;;1992141;28;1831544;-73
2023/06/05 06:37:01;;;;;;;;;15.00;13.33;;;;;;;;1968169;28;3530868;-72
2023/06/05 06:38:12;;;;;;;;;15.00;12.50;;;;;;;;1978765;28;2801324;-73
2023/06/05 06:39:25;;;;;;;;;12.00;12.00;;;;;;;;1969350;28;2789821;-73
2023/06/05 06:40:36;;;;;;;;;13.00;11.00;;;;;;;;1943953;28;2788822;-73
2023/06/05 06:41:48;;;;;;;;;13.67;12.17;;;;;;;;1967485;28;2804394;-73
2023/06/05 06:42:59;;;;;;;;;11.00;11.00;;;;;;;;1964079;28;2780446;-73
2023/06/05 06:44:13;;;;;;;;;14.00;11.57;;;;;;;;1982340;28;1833617;-73
2023/06/05 06:45:24;;;;;;;;;13.50;10.50;;;;;;;;1966036;28;2786718;-72
2023/06/05 06:46:36;;;;;;;;;15.43;12.71;;;;;;;;1969096;28;2809698;-73
2023/06/05 06:47:47;;;;;;;;;13.00;11.50;;;;;;;;1966140;28;2789926;-73
2023/06/05 06:48:58;;;;;;;;;17.33;11.67;;;;;;;;1964657;28;2808593;-73
2023/06/05 06:50:09;;;;;;;;;9.50;9.50;;;;;;;;1972571;28;2769003;-72
2023/06/05 06:51:22;;;;;;;;;11.20;10.80;;;;;;;;1973831;28;1833692;-72
2023/06/05 06:52:35;;;;;;;;;13.00;11.83;;;;;;;;1997524;28;1839895;-73
2023/06/05 06:53:45;;;;;;;;;11.00;10.00;;;;;;;;1946700;28;2791951;-73